메인 페이지
METAR-TAF:

METAR-TAF

공항 :

Northwest Arkansas Regional Airport

Fayetteville, 아칸소, 미국

위도: 36-16-55N, 경도: 094-18-25W, 고도: 392m

현재 날씨관측

예보는 45분 전, 09:53시(UTC)에 발표되었습니다.
북북서9kt
온도 3°C
습도 87%
기압 1017 hPa
시정: 2.4km
고도 200ft 상공 흐림
박무

METAR: KXNA 150953Z AUTO 34009KT 1 1/2SM BR OVC002 03/01 A3004 RMK AO2 SLP176 T00330011

시각: 04:38 (10:38 UTC)

예보

예보는 2 시간 49분 전, 07:49시(UTC)에 발표되었습니다.
예보 대상 시간: 15일 08시부터 16일 06시까지 (UTC)
북북서11kt
시정: 3.2km
고도 300ft 상공 흐림
박무
15일 1600시부터 (UTC)
8kt
시정: 10km
맑음
16일 0000시부터 (UTC)
북북서3kt
시정: 10km
맑음

TAF: KXNA 150749Z 1508/1606 34011KT 2SM BR OVC003 FM151600 35008KT P6SM SKC FM160000 33003KT P6SM SKC

4,000개 이상의 공항 관측 자료 및 예보 (METAR 및 TAF 보고).

지도상에서 검색 가능한 기상관측소가 노란 점과 빨간 점으로 표시되어 있습니다.

기상관측소 명을 보려면 표시 위로 마우스를 이동하세요.

날씨 관측과 예보를 보려면 클릭하세요.

지도 변경 : 확대하려면 엑스 표시가 있는 녹색 버튼, 축소하려면 빼기 표시가 있는 녹색 버튼, 다음 페이지의 지도를 보려면 녹색 화살표를 클릭하세요.


METAR-TAF: